FAMM/MBD METAR and TAF weather

Enter ICAO airport designator
Station Type Date Time Source
FAMM METAR 2019/02/23 17:00 UTC NOAA

FAMM 231700Z 29006KT 9999 FEW040 30/10 Q1015 NOSIG


Station Type Date Time Source
FAMM Decoded METAR 2019/02/23 17:00 UTC NOAA

Mafikeng Intl. Ad, South Africa (FAMM) 25-47S 025-32E 1300M
Feb 23, 2019 - 12:00 PM EST / 2019.02.23 1700 UTC
Wind: from the WNW (290 degrees) at 7 MPH (6 KT):0
Visibility: greater than 7 mile(s):0
Sky conditions: mostly clear
Temperature: 86 F (30 C)
Dew Point: 50 F (10 C)
Relative Humidity: 28%
Pressure (altimeter): 29.97 in. Hg (1015 hPa)
ob: FAMM 231700Z 29006KT 9999 FEW040 30/10 Q1015 NOSIG
cycle: 17

Station Type Date Time Source
FAMM TAF 2019/01/01 10:00 UTC NOAA

TAF FAMM 010900Z 0110/0118 04008KT 9999 BKN015
BECMG 0111/0113 34010KT BKN025 TX25/0113Z TN22/0118Z


Example: see airport list